sensor_id;sensor_type;location;lat;lon;timestamp;P1;durP1;ratioP1;P2;durP2;ratioP2
31818;SDS011;18384;48.860;9.188;2023-02-17T00:01:09;6.10;;;3.62;;
31818;SDS011;18384;48.860;9.188;2023-02-17T00:03:52;6.70;;;3.23;;
31818;SDS011;18384;48.860;9.188;2023-02-17T00:06:23;6.95;;;3.37;;
31818;SDS011;18384;48.860;9.188;2023-02-17T00:08:52;9.55;;;3.80;;
31818;SDS011;18384;48.860;9.188;2023-02-17T00:11:19;14.57;;;3.53;;
31818;SDS011;18384;48.860;9.188;2023-02-17T00:13:45;6.50;;;3.37;;
31818;SDS011;18384;48.860;9.188;2023-02-17T00:16:12;6.40;;;3.12;;
31818;SDS011;18384;48.860;9.188;2023-02-17T00:18:44;7.87;;;3.53;;
31818;SDS011;18384;48.860;9.188;2023-02-17T00:21:13;9.05;;;3.92;;
31818;SDS011;18384;48.860;9.188;2023-02-17T00:23:42;8.93;;;3.67;;
31818;SDS011;18384;48.860;9.188;2023-02-17T00:26:09;9.23;;;3.30;;
31818;SDS011;18384;48.860;9.188;2023-02-17T00:28:35;6.07;;;3.03;;
31818;SDS011;18384;48.860;9.188;2023-02-17T00:31:08;10.30;;;3.50;;
31818;SDS011;18384;48.860;9.188;2023-02-17T00:33:47;8.90;;;3.65;;
31818;SDS011;18384;48.860;9.188;2023-02-17T00:36:15;6.47;;;3.17;;
31818;SDS011;18384;48.860;9.188;2023-02-17T00:38:44;7.37;;;3.45;;
31818;SDS011;18384;48.860;9.188;2023-02-17T00:41:12;7.45;;;3.53;;
31818;SDS011;18384;48.860;9.188;2023-02-17T00:43:38;6.95;;;3.05;;
31818;SDS011;18384;48.860;9.188;2023-02-17T00:46:04;5.65;;;3.22;;
31818;SDS011;18384;48.860;9.188;2023-02-17T00:48:30;7.20;;;3.08;;
31818;SDS011;18384;48.860;9.188;2023-02-17T00:50:57;11.12;;;3.50;;
31818;SDS011;18384;48.860;9.188;2023-02-17T00:53:23;8.63;;;3.37;;
31818;SDS011;18384;48.860;9.188;2023-02-17T00:55:49;7.12;;;3.80;;
31818;SDS011;18384;48.860;9.188;2023-02-17T00:58:16;7.72;;;3.72;;
31818;SDS011;18384;48.860;9.188;2023-02-17T01:00:42;8.73;;;3.87;;
31818;SDS011;18384;48.860;9.188;2023-02-17T01:03:08;14.80;;;3.72;;
31818;SDS011;18384;48.860;9.188;2023-02-17T01:05:39;6.62;;;3.58;;
31818;SDS011;18384;48.860;9.188;2023-02-17T01:08:07;5.20;;;3.17;;
31818;SDS011;18384;48.860;9.188;2023-02-17T01:10:37;8.35;;;3.12;;
31818;SDS011;18384;48.860;9.188;2023-02-17T01:13:05;6.10;;;3.15;;
31818;SDS011;18384;48.860;9.188;2023-02-17T01:15:47;8.98;;;3.47;;
31818;SDS011;18384;48.860;9.188;2023-02-17T01:18:18;8.10;;;3.70;;
31818;SDS011;18384;48.860;9.188;2023-02-17T01:20:47;11.88;;;3.53;;
31818;SDS011;18384;48.860;9.188;2023-02-17T01:25:40;10.40;;;3.33;;
31818;SDS011;18384;48.860;9.188;2023-02-17T01:28:10;14.60;;;3.28;;
31818;SDS011;18384;48.860;9.188;2023-02-17T01:30:41;7.70;;;3.25;;
31818;SDS011;18384;48.860;9.188;2023-02-17T01:33:08;8.90;;;3.22;;
31818;SDS011;18384;48.860;9.188;2023-02-17T01:38:00;10.32;;;3.22;;
31818;SDS011;18384;48.860;9.188;2023-02-17T01:40:26;14.30;;;3.42;;
31818;SDS011;18384;48.860;9.188;2023-02-17T01:42:52;7.70;;;3.03;;
31818;SDS011;18384;48.860;9.188;2023-02-17T01:48:32;8.45;;;3.30;;
31818;SDS011;18384;48.860;9.188;2023-02-17T01:51:20;7.97;;;3.30;;
31818;SDS011;18384;48.860;9.188;2023-02-17T01:53:53;14.52;;;3.50;;
31818;SDS011;18384;48.860;9.188;2023-02-17T01:56:37;9.68;;;3.22;;
31818;SDS011;18384;48.860;9.188;2023-02-17T01:59:12;8.52;;;2.60;;
31818;SDS011;18384;48.860;9.188;2023-02-17T02:01:43;8.18;;;3.15;;
31818;SDS011;18384;48.860;9.188;2023-02-17T02:04:12;13.65;;;3.45;;
31818;SDS011;18384;48.860;9.188;2023-02-17T02:06:39;9.65;;;2.90;;
31818;SDS011;18384;48.860;9.188;2023-02-17T02:09:09;7.80;;;3.47;;
31818;SDS011;18384;48.860;9.188;2023-02-17T02:11:59;9.48;;;3.30;;
31818;SDS011;18384;48.860;9.188;2023-02-17T02:14:25;7.45;;;3.03;;
31818;SDS011;18384;48.860;9.188;2023-02-17T02:17:03;5.43;;;3.22;;
31818;SDS011;18384;48.860;9.188;2023-02-17T02:23:46;8.55;;;3.12;;
31818;SDS011;18384;48.860;9.188;2023-02-17T02:26:40;8.63;;;2.85;;
31818;SDS011;18384;48.860;9.188;2023-02-17T02:36:11;11.07;;;3.45;;
31818;SDS011;18384;48.860;9.188;2023-02-17T02:39:07;9.40;;;2.90;;
31818;SDS011;18384;48.860;9.188;2023-02-17T02:41:40;9.77;;;3.05;;
31818;SDS011;18384;48.860;9.188;2023-02-17T02:44:13;10.75;;;2.87;;
31818;SDS011;18384;48.860;9.188;2023-02-17T02:46:42;7.47;;;3.17;;
31818;SDS011;18384;48.860;9.188;2023-02-17T02:49:09;12.20;;;3.25;;
31818;SDS011;18384;48.860;9.188;2023-02-17T02:58:43;9.00;;;3.12;;
31818;SDS011;18384;48.860;9.188;2023-02-17T03:02:56;12.45;;;3.87;;
31818;SDS011;18384;48.860;9.188;2023-02-17T03:05:36;7.40;;;3.00;;
31818;SDS011;18384;48.860;9.188;2023-02-17T03:08:35;10.13;;;3.62;;
31818;SDS011;18384;48.860;9.188;2023-02-17T03:12:57;11.95;;;3.45;;
31818;SDS011;18384;48.860;9.188;2023-02-17T03:15:28;7.25;;;2.87;;
31818;SDS011;18384;48.860;9.188;2023-02-17T03:18:00;6.62;;;3.03;;
31818;SDS011;18384;48.860;9.188;2023-02-17T03:20:28;6.32;;;3.40;;
31818;SDS011;18384;48.860;9.188;2023-02-17T03:22:59;7.28;;;2.85;;
31818;SDS011;18384;48.860;9.188;2023-02-17T03:25:25;13.23;;;3.22;;
31818;SDS011;18384;48.860;9.188;2023-02-17T03:27:51;8.52;;;3.15;;
31818;SDS011;18384;48.860;9.188;2023-02-17T03:30:18;9.73;;;2.97;;
31818;SDS011;18384;48.860;9.188;2023-02-17T03:35:11;7.37;;;3.00;;
31818;SDS011;18384;48.860;9.188;2023-02-17T03:37:37;7.53;;;3.10;;
31818;SDS011;18384;48.860;9.188;2023-02-17T03:40:04;16.40;;;3.70;;
31818;SDS011;18384;48.860;9.188;2023-02-17T03:42:32;8.38;;;2.97;;
31818;SDS011;18384;48.860;9.188;2023-02-17T03:44:58;9.15;;;3.20;;
31818;SDS011;18384;48.860;9.188;2023-02-17T03:47:24;8.98;;;2.80;;
31818;SDS011;18384;48.860;9.188;2023-02-17T03:49:51;7.93;;;2.87;;
31818;SDS011;18384;48.860;9.188;2023-02-17T03:52:17;9.75;;;3.55;;
31818;SDS011;18384;48.860;9.188;2023-02-17T03:54:43;9.75;;;3.30;;
31818;SDS011;18384;48.860;9.188;2023-02-17T03:57:10;9.27;;;3.65;;
31818;SDS011;18384;48.860;9.188;2023-02-17T03:59:36;6.20;;;3.25;;
31818;SDS011;18384;48.860;9.188;2023-02-17T04:02:02;11.98;;;3.70;;
31818;SDS011;18384;48.860;9.188;2023-02-17T04:04:28;6.22;;;3.00;;
31818;SDS011;18384;48.860;9.188;2023-02-17T04:06:55;10.55;;;3.22;;
31818;SDS011;18384;48.860;9.188;2023-02-17T04:09:21;8.20;;;3.15;;
31818;SDS011;18384;48.860;9.188;2023-02-17T04:11:47;8.23;;;3.00;;
31818;SDS011;18384;48.860;9.188;2023-02-17T04:14:13;11.20;;;3.42;;
31818;SDS011;18384;48.860;9.188;2023-02-17T04:16:39;7.85;;;2.65;;
31818;SDS011;18384;48.860;9.188;2023-02-17T04:19:06;11.77;;;3.37;;
31818;SDS011;18384;48.860;9.188;2023-02-17T04:21:32;11.07;;;4.93;;
31818;SDS011;18384;48.860;9.188;2023-02-17T04:23:59;10.70;;;4.12;;
31818;SDS011;18384;48.860;9.188;2023-02-17T04:26:27;11.73;;;6.45;;
31818;SDS011;18384;48.860;9.188;2023-02-17T04:28:54;10.75;;;4.60;;
31818;SDS011;18384;48.860;9.188;2023-02-17T04:31:20;9.18;;;4.93;;
31818;SDS011;18384;48.860;9.188;2023-02-17T04:33:46;9.85;;;3.83;;
31818;SDS011;18384;48.860;9.188;2023-02-17T04:36:12;5.07;;;2.62;;
31818;SDS011;18384;48.860;9.188;2023-02-17T04:41:05;7.55;;;3.20;;
31818;SDS011;18384;48.860;9.188;2023-02-17T04:43:32;8.93;;;3.10;;
31818;SDS011;18384;48.860;9.188;2023-02-17T04:45:58;4.78;;;2.58;;
31818;SDS011;18384;48.860;9.188;2023-02-17T04:48:24;6.12;;;2.80;;
31818;SDS011;18384;48.860;9.188;2023-02-17T04:53:17;12.37;;;3.00;;
31818;SDS011;18384;48.860;9.188;2023-02-17T04:55:46;6.37;;;2.53;;
31818;SDS011;18384;48.860;9.188;2023-02-17T04:58:14;9.90;;;3.85;;
31818;SDS011;18384;48.860;9.188;2023-02-17T05:03:07;8.50;;;2.70;;
31818;SDS011;18384;48.860;9.188;2023-02-17T05:05:33;7.68;;;2.75;;
31818;SDS011;18384;48.860;9.188;2023-02-17T05:07:59;6.22;;;2.90;;
31818;SDS011;18384;48.860;9.188;2023-02-17T05:12:52;7.62;;;3.40;;
31818;SDS011;18384;48.860;9.188;2023-02-17T05:15:18;7.07;;;3.10;;
31818;SDS011;18384;48.860;9.188;2023-02-17T05:17:44;5.55;;;2.75;;
31818;SDS011;18384;48.860;9.188;2023-02-17T05:20:10;5.35;;;2.60;;
31818;SDS011;18384;48.860;9.188;2023-02-17T05:22:37;9.15;;;3.10;;
31818;SDS011;18384;48.860;9.188;2023-02-17T05:25:03;7.20;;;2.62;;
31818;SDS011;18384;48.860;9.188;2023-02-17T05:27:30;6.03;;;2.80;;
31818;SDS011;18384;48.860;9.188;2023-02-17T05:29:56;5.90;;;2.22;;
31818;SDS011;18384;48.860;9.188;2023-02-17T05:32:22;7.87;;;2.83;;
31818;SDS011;18384;48.860;9.188;2023-02-17T05:34:49;4.93;;;2.42;;
31818;SDS011;18384;48.860;9.188;2023-02-17T05:37:15;4.43;;;2.95;;
31818;SDS011;18384;48.860;9.188;2023-02-17T05:39:41;4.62;;;2.42;;
31818;SDS011;18384;48.860;9.188;2023-02-17T05:42:07;5.82;;;2.62;;
31818;SDS011;18384;48.860;9.188;2023-02-17T05:44:33;8.38;;;3.00;;
31818;SDS011;18384;48.860;9.188;2023-02-17T05:46:59;8.45;;;2.87;;
31818;SDS011;18384;48.860;9.188;2023-02-17T05:49:25;5.00;;;2.40;;
31818;SDS011;18384;48.860;9.188;2023-02-17T05:51:52;9.90;;;2.90;;
31818;SDS011;18384;48.860;9.188;2023-02-17T05:54:18;8.48;;;3.28;;
31818;SDS011;18384;48.860;9.188;2023-02-17T05:56:44;7.70;;;4.00;;
31818;SDS011;18384;48.860;9.188;2023-02-17T05:59:10;9.85;;;3.55;;
31818;SDS011;18384;48.860;9.188;2023-02-17T06:01:36;9.45;;;3.08;;
31818;SDS011;18384;48.860;9.188;2023-02-17T06:04:02;6.65;;;3.00;;
31818;SDS011;18384;48.860;9.188;2023-02-17T06:06:29;8.00;;;3.10;;
31818;SDS011;18384;48.860;9.188;2023-02-17T06:08:55;6.95;;;2.67;;
31818;SDS011;18384;48.860;9.188;2023-02-17T06:11:21;14.30;;;3.00;;
31818;SDS011;18384;48.860;9.188;2023-02-17T06:13:47;7.57;;;3.30;;
31818;SDS011;18384;48.860;9.188;2023-02-17T06:16:13;8.38;;;3.35;;
31818;SDS011;18384;48.860;9.188;2023-02-17T06:18:39;14.45;;;3.35;;
31818;SDS011;18384;48.860;9.188;2023-02-17T06:21:06;5.25;;;3.00;;
31818;SDS011;18384;48.860;9.188;2023-02-17T06:23:32;10.18;;;3.55;;
31818;SDS011;18384;48.860;9.188;2023-02-17T06:25:58;7.57;;;3.17;;
31818;SDS011;18384;48.860;9.188;2023-02-17T06:28:24;6.65;;;3.17;;
31818;SDS011;18384;48.860;9.188;2023-02-17T06:30:50;10.27;;;3.58;;
31818;SDS011;18384;48.860;9.188;2023-02-17T06:33:16;8.23;;;3.50;;
31818;SDS011;18384;48.860;9.188;2023-02-17T06:35:46;7.62;;;3.17;;
31818;SDS011;18384;48.860;9.188;2023-02-17T06:38:14;7.20;;;2.97;;
31818;SDS011;18384;48.860;9.188;2023-02-17T06:40:40;6.72;;;3.30;;
31818;SDS011;18384;48.860;9.188;2023-02-17T06:43:06;7.28;;;3.35;;
31818;SDS011;18384;48.860;9.188;2023-02-17T06:45:32;7.10;;;3.78;;
31818;SDS011;18384;48.860;9.188;2023-02-17T06:47:58;9.40;;;4.07;;
31818;SDS011;18384;48.860;9.188;2023-02-17T06:50:24;8.63;;;3.17;;
31818;SDS011;18384;48.860;9.188;2023-02-17T06:52:51;7.93;;;3.00;;
31818;SDS011;18384;48.860;9.188;2023-02-17T06:57:43;5.00;;;2.87;;
31818;SDS011;18384;48.860;9.188;2023-02-17T07:00:09;13.43;;;3.17;;
31818;SDS011;18384;48.860;9.188;2023-02-17T07:02:36;9.35;;;2.92;;
31818;SDS011;18384;48.860;9.188;2023-02-17T07:05:04;7.22;;;2.95;;
31818;SDS011;18384;48.860;9.188;2023-02-17T07:07:31;5.70;;;3.00;;
31818;SDS011;18384;48.860;9.188;2023-02-17T07:09:57;6.97;;;3.33;;
31818;SDS011;18384;48.860;9.188;2023-02-17T07:12:23;6.28;;;2.75;;
31818;SDS011;18384;48.860;9.188;2023-02-17T07:14:49;6.00;;;3.33;;
31818;SDS011;18384;48.860;9.188;2023-02-17T07:17:15;8.35;;;3.22;;
31818;SDS011;18384;48.860;9.188;2023-02-17T07:19:41;10.35;;;3.00;;
31818;SDS011;18384;48.860;9.188;2023-02-17T07:22:07;9.10;;;3.47;;
31818;SDS011;18384;48.860;9.188;2023-02-17T07:24:34;8.85;;;2.95;;
31818;SDS011;18384;48.860;9.188;2023-02-17T07:27:00;6.22;;;2.67;;
31818;SDS011;18384;48.860;9.188;2023-02-17T07:29:26;7.57;;;2.85;;
31818;SDS011;18384;48.860;9.188;2023-02-17T07:31:52;5.07;;;3.08;;
31818;SDS011;18384;48.860;9.188;2023-02-17T07:34:18;8.82;;;2.95;;
31818;SDS011;18384;48.860;9.188;2023-02-17T07:36:46;6.50;;;2.78;;
31818;SDS011;18384;48.860;9.188;2023-02-17T07:39:12;10.40;;;3.53;;
31818;SDS011;18384;48.860;9.188;2023-02-17T07:41:38;13.68;;;3.22;;
31818;SDS011;18384;48.860;9.188;2023-02-17T07:44:04;9.07;;;2.85;;
31818;SDS011;18384;48.860;9.188;2023-02-17T07:46:30;7.90;;;3.00;;
31818;SDS011;18384;48.860;9.188;2023-02-17T07:48:57;5.60;;;2.83;;
31818;SDS011;18384;48.860;9.188;2023-02-17T07:51:23;5.97;;;2.85;;
31818;SDS011;18384;48.860;9.188;2023-02-17T07:53:50;6.32;;;2.62;;
31818;SDS011;18384;48.860;9.188;2023-02-17T07:56:18;7.32;;;2.65;;
31818;SDS011;18384;48.860;9.188;2023-02-17T07:58:46;10.45;;;2.75;;
31818;SDS011;18384;48.860;9.188;2023-02-17T08:01:14;6.57;;;2.83;;
31818;SDS011;18384;48.860;9.188;2023-02-17T08:03:44;7.93;;;2.83;;
31818;SDS011;18384;48.860;9.188;2023-02-17T08:06:13;8.93;;;2.25;;
31818;SDS011;18384;48.860;9.188;2023-02-17T08:08:42;5.85;;;2.95;;
31818;SDS011;18384;48.860;9.188;2023-02-17T08:11:27;5.65;;;2.45;;
31818;SDS011;18384;48.860;9.188;2023-02-17T08:14:12;5.90;;;2.92;;
31818;SDS011;18384;48.860;9.188;2023-02-17T08:19:04;4.12;;;2.33;;
31818;SDS011;18384;48.860;9.188;2023-02-17T08:21:30;4.55;;;2.53;;
31818;SDS011;18384;48.860;9.188;2023-02-17T08:23:57;5.18;;;2.72;;
31818;SDS011;18384;48.860;9.188;2023-02-17T08:26:23;6.10;;;2.90;;
31818;SDS011;18384;48.860;9.188;2023-02-17T08:31:20;6.40;;;2.33;;
31818;SDS011;18384;48.860;9.188;2023-02-17T08:33:56;4.22;;;2.42;;
31818;SDS011;18384;48.860;9.188;2023-02-17T08:36:22;5.50;;;2.47;;
31818;SDS011;18384;48.860;9.188;2023-02-17T08:38:50;6.50;;;2.87;;
31818;SDS011;18384;48.860;9.188;2023-02-17T08:41:21;6.22;;;2.78;;
31818;SDS011;18384;48.860;9.188;2023-02-17T08:43:53;7.60;;;3.10;;
31818;SDS011;18384;48.860;9.188;2023-02-17T08:46:20;6.35;;;2.70;;
31818;SDS011;18384;48.860;9.188;2023-02-17T08:51:14;6.32;;;2.30;;
31818;SDS011;18384;48.860;9.188;2023-02-17T08:53:42;9.90;;;2.75;;
31818;SDS011;18384;48.860;9.188;2023-02-17T08:56:09;5.37;;;2.50;;
31818;SDS011;18384;48.860;9.188;2023-02-17T09:01:02;5.07;;;2.55;;
31818;SDS011;18384;48.860;9.188;2023-02-17T09:03:29;6.50;;;2.65;;
31818;SDS011;18384;48.860;9.188;2023-02-17T09:06:04;11.80;;;2.03;;
31818;SDS011;18384;48.860;9.188;2023-02-17T09:08:31;5.93;;;2.00;;
31818;SDS011;18384;48.860;9.188;2023-02-17T09:10:58;6.32;;;2.50;;
31818;SDS011;18384;48.860;9.188;2023-02-17T09:13:25;4.93;;;2.45;;
31818;SDS011;18384;48.860;9.188;2023-02-17T09:15:52;6.05;;;2.22;;
31818;SDS011;18384;48.860;9.188;2023-02-17T09:18:19;5.05;;;2.37;;
31818;SDS011;18384;48.860;9.188;2023-02-17T09:20:46;3.95;;;2.00;;
31818;SDS011;18384;48.860;9.188;2023-02-17T09:25:38;13.13;;;2.50;;
31818;SDS011;18384;48.860;9.188;2023-02-17T09:28:05;8.00;;;2.30;;
31818;SDS011;18384;48.860;9.188;2023-02-17T09:30:32;5.90;;;2.42;;
31818;SDS011;18384;48.860;9.188;2023-02-17T09:32:58;18.70;;;2.50;;
31818;SDS011;18384;48.860;9.188;2023-02-17T09:35:24;4.50;;;2.50;;
31818;SDS011;18384;48.860;9.188;2023-02-17T09:37:51;3.42;;;2.08;;
31818;SDS011;18384;48.860;9.188;2023-02-17T09:40:22;4.87;;;2.33;;
31818;SDS011;18384;48.860;9.188;2023-02-17T09:43:01;6.68;;;2.08;;
31818;SDS011;18384;48.860;9.188;2023-02-17T09:45:28;5.87;;;2.25;;
31818;SDS011;18384;48.860;9.188;2023-02-17T09:48:10;10.00;;;2.15;;
31818;SDS011;18384;48.860;9.188;2023-02-17T09:50:53;8.20;;;2.33;;
31818;SDS011;18384;48.860;9.188;2023-02-17T09:53:29;3.22;;;1.92;;
31818;SDS011;18384;48.860;9.188;2023-02-17T09:56:07;7.57;;;1.95;;
31818;SDS011;18384;48.860;9.188;2023-02-17T09:58:39;5.80;;;1.85;;
31818;SDS011;18384;48.860;9.188;2023-02-17T10:01:18;2.80;;;1.42;;
31818;SDS011;18384;48.860;9.188;2023-02-17T10:03:49;6.87;;;2.15;;
31818;SDS011;18384;48.860;9.188;2023-02-17T10:06:27;4.25;;;1.67;;
31818;SDS011;18384;48.860;9.188;2023-02-17T10:09:31;4.50;;;1.70;;
31818;SDS011;18384;48.860;9.188;2023-02-17T10:12:22;2.92;;;1.65;;
31818;SDS011;18384;48.860;9.188;2023-02-17T10:14:53;12.27;;;1.52;;
31818;SDS011;18384;48.860;9.188;2023-02-17T10:17:28;9.13;;;2.60;;
31818;SDS011;18384;48.860;9.188;2023-02-17T10:20:13;5.47;;;1.98;;
31818;SDS011;18384;48.860;9.188;2023-02-17T10:22:46;4.37;;;2.72;;
31818;SDS011;18384;48.860;9.188;2023-02-17T10:25:39;5.47;;;1.75;;
31818;SDS011;18384;48.860;9.188;2023-02-17T10:28:41;6.87;;;1.77;;
31818;SDS011;18384;48.860;9.188;2023-02-17T10:31:24;12.68;;;1.98;;
31818;SDS011;18384;48.860;9.188;2023-02-17T10:34:13;5.45;;;1.40;;
31818;SDS011;18384;48.860;9.188;2023-02-17T10:37:03;3.62;;;1.60;;
31818;SDS011;18384;48.860;9.188;2023-02-17T10:39:42;5.32;;;1.42;;
31818;SDS011;18384;48.860;9.188;2023-02-17T10:42:20;2.08;;;1.15;;
31818;SDS011;18384;48.860;9.188;2023-02-17T10:44:54;5.18;;;1.30;;
31818;SDS011;18384;48.860;9.188;2023-02-17T10:47:31;5.40;;;1.08;;
31818;SDS011;18384;48.860;9.188;2023-02-17T10:50:01;8.32;;;2.90;;
31818;SDS011;18384;48.860;9.188;2023-02-17T10:52:37;10.13;;;2.00;;
31818;SDS011;18384;48.860;9.188;2023-02-17T10:55:11;7.25;;;2.97;;
31818;SDS011;18384;48.860;9.188;2023-02-17T11:05:31;4.40;;;1.00;;
31818;SDS011;18384;48.860;9.188;2023-02-17T11:08:03;2.50;;;1.08;;
31818;SDS011;18384;48.860;9.188;2023-02-17T11:10:34;1.52;;;0.88;;
31818;SDS011;18384;48.860;9.188;2023-02-17T11:17:15;1.67;;;0.90;;
31818;SDS011;18384;48.860;9.188;2023-02-17T11:19:54;2.58;;;0.90;;
31818;SDS011;18384;48.860;9.188;2023-02-17T11:22:33;1.73;;;0.68;;
31818;SDS011;18384;48.860;9.188;2023-02-17T11:25:07;3.03;;;0.90;;
31818;SDS011;18384;48.860;9.188;2023-02-17T11:27:54;2.25;;;0.90;;
31818;SDS011;18384;48.860;9.188;2023-02-17T11:30:23;4.07;;;0.62;;
31818;SDS011;18384;48.860;9.188;2023-02-17T11:32:51;1.60;;;0.60;;
31818;SDS011;18384;48.860;9.188;2023-02-17T11:41:17;4.75;;;0.80;;
31818;SDS011;18384;48.860;9.188;2023-02-17T11:46:29;3.85;;;0.70;;
31818;SDS011;18384;48.860;9.188;2023-02-17T11:49:47;4.12;;;0.60;;
31818;SDS011;18384;48.860;9.188;2023-02-17T11:52:59;2.22;;;0.60;;
31818;SDS011;18384;48.860;9.188;2023-02-17T11:55:59;0.90;;;0.40;;
31818;SDS011;18384;48.860;9.188;2023-02-17T11:59:30;1.12;;;0.40;;
31818;SDS011;18384;48.860;9.188;2023-02-17T12:02:16;1.08;;;0.50;;
31818;SDS011;18384;48.860;9.188;2023-02-17T12:05:31;0.93;;;0.50;;
31818;SDS011;18384;48.860;9.188;2023-02-17T12:15:16;5.40;;;0.60;;
31818;SDS011;18384;48.860;9.188;2023-02-17T12:18:18;5.15;;;0.70;;
31818;SDS011;18384;48.860;9.188;2023-02-17T12:22:20;2.00;;;0.60;;
31818;SDS011;18384;48.860;9.188;2023-02-17T12:28:09;1.05;;;0.65;;
31818;SDS011;18384;48.860;9.188;2023-02-17T12:32:39;3.22;;;2.12;;
31818;SDS011;18384;48.860;9.188;2023-02-17T12:37:52;1.98;;;0.65;;
31818;SDS011;18384;48.860;9.188;2023-02-17T12:40:34;3.67;;;0.80;;
31818;SDS011;18384;48.860;9.188;2023-02-17T12:43:06;3.08;;;0.57;;
31818;SDS011;18384;48.860;9.188;2023-02-17T12:45:50;5.50;;;1.50;;
31818;SDS011;18384;48.860;9.188;2023-02-17T12:51:46;6.32;;;1.25;;
31818;SDS011;18384;48.860;9.188;2023-02-17T12:54:37;4.85;;;0.80;;
31818;SDS011;18384;48.860;9.188;2023-02-17T12:57:12;2.78;;;0.70;;
31818;SDS011;18384;48.860;9.188;2023-02-17T12:59:44;0.95;;;0.50;;
31818;SDS011;18384;48.860;9.188;2023-02-17T13:02:22;1.87;;;0.73;;
31818;SDS011;18384;48.860;9.188;2023-02-17T13:04:53;2.33;;;0.70;;
31818;SDS011;18384;48.860;9.188;2023-02-17T13:07:47;1.70;;;0.65;;
31818;SDS011;18384;48.860;9.188;2023-02-17T13:10:30;1.70;;;0.62;;
31818;SDS011;18384;48.860;9.188;2023-02-17T13:13:04;2.85;;;1.00;;
31818;SDS011;18384;48.860;9.188;2023-02-17T13:15:36;2.62;;;0.93;;
31818;SDS011;18384;48.860;9.188;2023-02-17T13:18:11;2.50;;;0.60;;
31818;SDS011;18384;48.860;9.188;2023-02-17T13:20:59;1.15;;;0.40;;
31818;SDS011;18384;48.860;9.188;2023-02-17T13:36:13;2.90;;;0.70;;
31818;SDS011;18384;48.860;9.188;2023-02-17T13:38:56;1.87;;;0.60;;
31818;SDS011;18384;48.860;9.188;2023-02-17T13:41:27;2.55;;;0.57;;
31818;SDS011;18384;48.860;9.188;2023-02-17T13:43:58;4.35;;;0.50;;
31818;SDS011;18384;48.860;9.188;2023-02-17T13:46:39;1.50;;;0.80;;
31818;SDS011;18384;48.860;9.188;2023-02-17T13:49:14;3.10;;;0.80;;
31818;SDS011;18384;48.860;9.188;2023-02-17T13:51:48;1.65;;;0.77;;
31818;SDS011;18384;48.860;9.188;2023-02-17T13:54:14;3.12;;;1.02;;
31818;SDS011;18384;48.860;9.188;2023-02-17T13:56:50;8.95;;;1.27;;
31818;SDS011;18384;48.860;9.188;2023-02-17T13:59:23;1.70;;;0.95;;
31818;SDS011;18384;48.860;9.188;2023-02-17T14:01:51;4.75;;;0.90;;
31818;SDS011;18384;48.860;9.188;2023-02-17T14:04:31;4.85;;;0.98;;
31818;SDS011;18384;48.860;9.188;2023-02-17T14:06:57;1.55;;;0.70;;
31818;SDS011;18384;48.860;9.188;2023-02-17T14:09:28;11.82;;;1.17;;
31818;SDS011;18384;48.860;9.188;2023-02-17T14:11:57;4.32;;;0.55;;
31818;SDS011;18384;48.860;9.188;2023-02-17T14:14:33;2.22;;;0.80;;
31818;SDS011;18384;48.860;9.188;2023-02-17T14:17:03;1.98;;;0.85;;
31818;SDS011;18384;48.860;9.188;2023-02-17T14:19:46;2.08;;;0.80;;
31818;SDS011;18384;48.860;9.188;2023-02-17T14:22:25;1.20;;;0.70;;
31818;SDS011;18384;48.860;9.188;2023-02-17T14:25:05;2.12;;;0.73;;
31818;SDS011;18384;48.860;9.188;2023-02-17T14:27:44;4.65;;;1.50;;
31818;SDS011;18384;48.860;9.188;2023-02-17T14:33:05;2.08;;;0.90;;
31818;SDS011;18384;48.860;9.188;2023-02-17T14:36:37;1.73;;;0.70;;
31818;SDS011;18384;48.860;9.188;2023-02-17T14:39:05;1.27;;;0.73;;
31818;SDS011;18384;48.860;9.188;2023-02-17T14:41:35;3.37;;;0.80;;
31818;SDS011;18384;48.860;9.188;2023-02-17T14:44:01;3.03;;;0.80;;
31818;SDS011;18384;48.860;9.188;2023-02-17T14:46:30;1.45;;;0.73;;
31818;SDS011;18384;48.860;9.188;2023-02-17T14:48:57;1.20;;;0.70;;
31818;SDS011;18384;48.860;9.188;2023-02-17T14:53:55;3.03;;;0.90;;
31818;SDS011;18384;48.860;9.188;2023-02-17T14:56:31;3.08;;;1.30;;
31818;SDS011;18384;48.860;9.188;2023-02-17T14:59:01;3.80;;;1.00;;
31818;SDS011;18384;48.860;9.188;2023-02-17T15:01:27;4.45;;;1.67;;
31818;SDS011;18384;48.860;9.188;2023-02-17T15:03:53;2.42;;;0.93;;
31818;SDS011;18384;48.860;9.188;2023-02-17T15:06:24;4.57;;;1.00;;
31818;SDS011;18384;48.860;9.188;2023-02-17T15:08:53;1.98;;;0.82;;
31818;SDS011;18384;48.860;9.188;2023-02-17T15:11:26;2.40;;;1.00;;
31818;SDS011;18384;48.860;9.188;2023-02-17T15:14:01;2.95;;;1.33;;
31818;SDS011;18384;48.860;9.188;2023-02-17T15:16:28;4.30;;;1.10;;
31818;SDS011;18384;48.860;9.188;2023-02-17T15:18:55;4.03;;;1.35;;
31818;SDS011;18384;48.860;9.188;2023-02-17T15:21:25;7.30;;;0.98;;
31818;SDS011;18384;48.860;9.188;2023-02-17T15:23:54;3.20;;;1.20;;
31818;SDS011;18384;48.860;9.188;2023-02-17T15:26:22;3.17;;;1.00;;
31818;SDS011;18384;48.860;9.188;2023-02-17T15:28:49;1.52;;;0.80;;
31818;SDS011;18384;48.860;9.188;2023-02-17T15:31:15;3.60;;;1.33;;
31818;SDS011;18384;48.860;9.188;2023-02-17T15:33:48;2.65;;;1.42;;
31818;SDS011;18384;48.860;9.188;2023-02-17T15:36:22;3.20;;;0.95;;
31818;SDS011;18384;48.860;9.188;2023-02-17T15:38:49;6.35;;;1.00;;
31818;SDS011;18384;48.860;9.188;2023-02-17T15:41:19;5.60;;;3.05;;
31818;SDS011;18384;48.860;9.188;2023-02-17T15:43:49;4.75;;;1.27;;
31818;SDS011;18384;48.860;9.188;2023-02-17T15:46:17;4.68;;;1.42;;
31818;SDS011;18384;48.860;9.188;2023-02-17T15:48:45;3.75;;;1.30;;
31818;SDS011;18384;48.860;9.188;2023-02-17T15:51:17;5.15;;;1.58;;
31818;SDS011;18384;48.860;9.188;2023-02-17T15:53:44;4.45;;;1.23;;
31818;SDS011;18384;48.860;9.188;2023-02-17T15:56:12;4.85;;;1.65;;
31818;SDS011;18384;48.860;9.188;2023-02-17T15:58:43;4.05;;;1.30;;
31818;SDS011;18384;48.860;9.188;2023-02-17T16:01:43;2.62;;;1.27;;
31818;SDS011;18384;48.860;9.188;2023-02-17T16:04:11;3.08;;;1.58;;
31818;SDS011;18384;48.860;9.188;2023-02-17T16:06:38;2.87;;;1.50;;
31818;SDS011;18384;48.860;9.188;2023-02-17T16:09:05;6.00;;;1.33;;
31818;SDS011;18384;48.860;9.188;2023-02-17T16:11:32;6.47;;;2.47;;
31818;SDS011;18384;48.860;9.188;2023-02-17T16:14:00;4.93;;;1.80;;
31818;SDS011;18384;48.860;9.188;2023-02-17T16:16:27;3.60;;;1.90;;
31818;SDS011;18384;48.860;9.188;2023-02-17T16:18:57;5.10;;;1.83;;
31818;SDS011;18384;48.860;9.188;2023-02-17T16:21:24;5.25;;;2.25;;
31818;SDS011;18384;48.860;9.188;2023-02-17T16:23:51;3.35;;;1.65;;
31818;SDS011;18384;48.860;9.188;2023-02-17T16:26:30;10.23;;;2.03;;
31818;SDS011;18384;48.860;9.188;2023-02-17T16:29:08;3.65;;;1.40;;
31818;SDS011;18384;48.860;9.188;2023-02-17T16:31:41;4.87;;;1.83;;
31818;SDS011;18384;48.860;9.188;2023-02-17T16:34:12;6.07;;;1.50;;
31818;SDS011;18384;48.860;9.188;2023-02-17T16:36:40;4.85;;;1.90;;
31818;SDS011;18384;48.860;9.188;2023-02-17T16:39:11;2.90;;;1.40;;
31818;SDS011;18384;48.860;9.188;2023-02-17T16:41:39;3.97;;;1.60;;
31818;SDS011;18384;48.860;9.188;2023-02-17T16:44:06;6.72;;;1.65;;
31818;SDS011;18384;48.860;9.188;2023-02-17T16:46:36;8.02;;;2.20;;
31818;SDS011;18384;48.860;9.188;2023-02-17T16:51:50;3.97;;;1.60;;
31818;SDS011;18384;48.860;9.188;2023-02-17T16:54:17;3.67;;;1.95;;
31818;SDS011;18384;48.860;9.188;2023-02-17T16:56:44;4.35;;;2.10;;
31818;SDS011;18384;48.860;9.188;2023-02-17T16:59:15;3.90;;;1.92;;
31818;SDS011;18384;48.860;9.188;2023-02-17T17:01:44;3.10;;;1.65;;
31818;SDS011;18384;48.860;9.188;2023-02-17T17:04:11;6.03;;;1.92;;
31818;SDS011;18384;48.860;9.188;2023-02-17T17:06:44;4.60;;;1.98;;
31818;SDS011;18384;48.860;9.188;2023-02-17T17:09:17;3.97;;;2.05;;